Time;durP1;ratioP1;P1;durP2;ratioP2;P2;SDS_P1;SDS_P2;PMS_P1;PMS_P2;Temp;Humidity;BMP_temperature;BMP_pressure;BME280_temperature;BME280_humidity;BME280_pressure;Samples;Min_cycle;Max_cycle;Signal;HPM_P1;HPM_P2
2021/06/29 00:00:11;;;;;;;1999.90;999.90;;;;;;;24.49;47.88;100756.00;15374716;29;20055;-61
2021/06/29 00:07:43;;;;;;;1999.90;999.90;;;;;;;24.19;48.60;100753.91;15375320;28;20047;-61
2021/06/29 00:15:17;;;;;;;1999.90;999.90;;;;;;;24.21;48.19;100748.59;15372490;29;20035;-61
2021/06/29 00:22:49;;;;;;;1999.90;999.90;;;;;;;24.01;48.92;100750.44;15372935;29;20052;-62
2021/06/29 00:30:23;;;;;;;1999.90;999.90;;;;;;;23.89;49.48;100748.97;15375314;28;20416;-62
2021/06/29 00:37:55;;;;;;;1999.90;999.90;;;;;;;23.63;50.66;100743.94;15371936;29;20050;-60
2021/06/29 00:45:29;;;;;;;1999.90;999.90;;;;;;;23.42;50.96;100742.88;15374594;28;20420;-60
2021/06/29 00:53:01;;;;;;;1999.90;999.90;;;;;;;23.31;51.29;100740.13;15381932;28;20055;-61
2021/06/29 01:00:35;;;;;;;1999.90;999.90;;;;;;;23.35;50.83;100733.59;15380831;29;20241;-62
2021/06/29 01:08:07;;;;;;;1999.90;999.90;;;;;;;23.26;51.33;100725.53;15380550;29;20122;-59
2021/06/29 01:15:40;;;;;;;1999.90;999.90;;;;;;;22.98;52.26;100718.84;15384037;28;20043;-62
2021/06/29 01:23:17;;;;;;;1999.90;999.90;;;;;;;22.94;52.45;100734.31;15382356;29;20134;-59
2021/06/29 01:31:01;;;;;;;1999.90;999.90;;;;;;;22.81;52.89;100736.00;15382442;29;20082;-61
2021/06/29 01:38:34;;;;;;;1999.90;999.90;;;;;;;22.60;53.84;100725.56;14741712;28;18820919;-59
2021/06/29 01:46:06;;;;;;;1999.90;999.90;;;;;;;22.56;54.58;100734.13;15386056;28;20043;-60
2021/06/29 01:53:40;;;;;;;1999.90;999.90;;;;;;;22.67;54.63;100725.53;15384699;28;20427;-61
2021/06/29 02:01:16;;;;;;;1999.90;999.90;;;;;;;22.62;54.34;100726.78;15385021;28;20102;-59
2021/06/29 02:08:49;;;;;;;1999.90;999.90;;;;;;;22.65;54.95;100739.34;15384188;28;20106;-61
2021/06/29 02:16:22;;;;;;;1999.90;999.90;;;;;;;22.76;54.81;100742.94;15383947;28;20067;-62
2021/06/29 02:23:55;;;;;;;1999.90;999.90;;;;;;;22.85;55.05;100746.16;15383510;28;20051;-62
2021/06/29 02:31:27;;;;;;;1999.90;999.90;;;;;;;22.90;55.12;100757.09;15378834;29;20135;-59
2021/06/29 02:39:00;;;;;;;1999.90;999.90;;;;;;;23.02;53.64;100762.28;15361716;29;20047;-61
2021/06/29 02:46:35;;;;;;;1999.90;999.90;;;;;;;23.24;52.55;100764.97;15381665;28;20048;-60
2021/06/29 02:54:08;;;;;;;1999.90;999.90;;;;;;;23.15;54.09;100753.28;15381071;28;20047;-61
2021/06/29 03:01:41;;;;;;;1999.90;999.90;;;;;;;23.13;54.49;100756.50;15364666;29;20135;-58
2021/06/29 03:09:15;;;;;;;1999.90;999.90;;;;;;;23.19;54.11;100743.47;15380559;28;20122;-61
2021/06/29 03:16:47;;;;;;;1999.90;999.90;;;;;;;22.84;55.53;100740.91;15380254;28;20124;-61
2021/06/29 03:24:20;;;;;;;1999.90;999.90;;;;;;;23.09;54.54;100743.56;15382286;28;20047;-58
2021/06/29 03:31:52;;;;;;;1999.90;999.90;;;;;;;23.19;54.95;100739.81;15378269;28;20043;-61
2021/06/29 03:39:26;;;;;;;1999.90;999.90;;;;;;;23.25;56.82;100741.00;15377749;28;20094;-59
2021/06/29 03:46:58;;;;;;;1999.90;999.90;;;;;;;23.23;55.04;100737.75;15378170;28;20134;-58
2021/06/29 03:54:31;;;;;;;1999.90;999.90;;;;;;;23.21;55.24;100723.94;15377811;28;20106;-59
2021/06/29 04:02:04;;;;;;;1999.90;999.90;;;;;;;23.07;55.80;100723.25;15377052;28;20078;-62
2021/06/29 04:09:38;;;;;;;1999.90;999.90;;;;;;;23.39;55.25;100718.09;15376142;29;20046;-61
2021/06/29 04:17:10;;;;;;;1999.90;999.90;;;;;;;23.27;55.25;100736.50;15377460;28;20072;-62
2021/06/29 04:24:44;;;;;;;1999.90;999.90;;;;;;;23.60;54.42;100720.75;15390476;28;20069;-59
2021/06/29 04:32:16;;;;;;;1999.90;999.90;;;;;;;23.40;56.47;100716.84;15388529;29;20098;-59
2021/06/29 04:39:50;;;;;;;1999.90;999.90;;;;;;;23.40;56.59;100707.50;15385478;28;20071;-57
2021/06/29 04:47:46;;;;;;;1999.90;999.90;;;;;;;23.73;55.22;100717.38;15386462;29;20059;-62
2021/06/29 04:55:20;;;;;;;1999.90;999.90;;;;;;;23.98;54.79;100712.22;15390898;28;20043;-61
2021/06/29 05:02:54;;;;;;;1999.90;999.90;;;;;;;24.38;53.75;100718.25;15381566;29;20075;-59
2021/06/29 05:10:28;;;;;;;1999.90;999.90;;;;;;;24.39;53.73;100723.53;15383487;28;20448;-60
2021/06/29 05:18:01;;;;;;;1999.90;999.90;;;;;;;25.08;51.75;100721.31;15364891;29;20126;-59
2021/06/29 05:25:34;;;;;;;1999.90;999.90;;;;;;;25.62;51.66;100733.41;15382084;28;20047;-58
2021/06/29 05:33:06;;;;;;;1999.90;999.90;;;;;;;26.14;50.35;100732.03;15379088;28;20564;-56
2021/06/29 05:40:40;;;;;;;1999.90;999.90;;;;;;;26.60;49.40;100741.75;15381609;28;20117;-57
2021/06/29 05:48:15;;;;;;;1999.90;999.90;;;;;;;27.26;48.83;100735.69;15380146;28;20043;-58
2021/06/29 05:55:48;;;;;;;1999.90;999.90;;;;;;;27.40;49.50;100734.50;15376776;29;20382;-60
2021/06/29 06:03:21;;;;;;;1999.90;999.90;;;;;;;28.14;48.29;100728.03;15379815;28;20043;-60
2021/06/29 06:10:54;;;;;;;1999.90;999.90;;;;;;;28.66;46.51;100715.44;15379716;28;20122;-61
2021/06/29 06:18:27;;;;;;;1999.90;999.90;;;;;;;28.74;46.04;100708.97;15379346;28;20131;-60
2021/06/29 06:26:00;;;;;;;1999.90;999.90;;;;;;;28.58;47.13;100709.09;15377948;28;20461;-62
2021/06/29 06:33:32;;;;;;;1999.90;999.90;;;;;;;28.99;47.80;100696.72;15378386;28;20089;-61
2021/06/29 06:41:06;;;;;;;1999.90;999.90;;;;;;;29.28;46.01;100696.56;15376169;28;20048;-60
2021/06/29 06:48:39;;;;;;;1999.90;999.90;;;;;;;30.11;45.24;100703.88;15377519;28;20435;-60
2021/06/29 06:56:17;;;;;;;1999.90;999.90;;;;;;;30.52;43.98;100689.59;15376333;28;20067;-62
2021/06/29 07:03:49;;;;;;;1999.90;999.90;;;;;;;30.35;44.09;100692.72;15377520;28;20407;-62
2021/06/29 07:11:23;;;;;;;1999.90;999.90;;;;;;;30.85;44.44;100701.44;15377792;28;20141;-62
2021/06/29 07:18:55;;;;;;;1999.90;999.90;;;;;;;31.57;42.01;100697.19;15375970;28;20046;-62
2021/06/29 07:26:29;;;;;;;1999.90;999.90;;;;;;;30.61;42.44;100695.41;15375392;28;20053;-60
2021/06/29 07:34:01;;;;;;;1999.90;999.90;;;;;;;30.58;44.00;100700.03;15374524;29;20098;-60
2021/06/29 07:41:35;;;;;;;1999.90;999.90;;;;;;;30.79;43.32;100691.84;15374034;29;20043;-61
2021/06/29 07:49:07;;;;;;;1999.90;999.90;;;;;;;31.46;43.04;100679.53;15373164;29;20485;-60
2021/06/29 07:56:41;;;;;;;1999.90;999.90;;;;;;;31.13;42.88;100682.19;15373909;28;20078;-60
2021/06/29 08:04:14;;;;;;;1999.90;999.90;;;;;;;32.41;41.50;100685.97;15374046;28;20086;-61
2021/06/29 08:11:48;;;;;;;1999.90;999.90;;;;;;;33.29;39.31;100676.25;15372687;29;20050;-61
2021/06/29 08:19:20;;;;;;;1999.90;999.90;;;;;;;32.41;39.55;100670.69;15374145;28;20045;-61
2021/06/29 08:26:53;;;;;;;1999.90;999.90;;;;;;;32.70;39.23;100676.69;15373126;29;20039;-62
2021/06/29 08:34:25;;;;;;;1999.90;999.90;;;;;;;34.08;37.89;100681.63;15373301;28;20047;-60
2021/06/29 08:42:00;;;;;;;1999.90;999.90;;;;;;;34.04;35.54;100675.22;15373526;28;20062;-61
2021/06/29 08:49:33;;;;;;;1999.90;999.90;;;;;;;34.63;37.01;100666.56;15372894;28;20047;-62
2021/06/29 08:57:08;;;;;;;1999.90;999.90;;;;;;;33.99;34.80;100667.25;15371569;29;20040;-62
2021/06/29 09:04:47;;;;;;;1999.90;999.90;;;;;;;32.84;35.87;100643.47;15373037;28;20110;-60
2021/06/29 09:12:47;;;;;;;1999.90;999.90;;;;;;;31.88;39.38;100637.28;15366557;29;20509;-60
2021/06/29 09:20:26;;;;;;;1999.90;999.90;;;;;;;31.30;40.51;100646.88;15398457;28;20047;-61
2021/06/29 09:27:59;;;;;;;1999.90;999.90;;;;;;;31.06;40.50;100648.72;15382987;28;20047;-61
2021/06/29 09:35:32;;;;;;;1999.90;999.90;;;;;;;31.41;40.72;100649.28;15382386;28;20051;-62
2021/06/29 09:43:12;;;;;;;1999.90;999.90;;;;;;;31.51;41.31;100650.91;15381774;28;20054;-60
2021/06/29 09:50:48;;;;;;;1999.90;999.90;;;;;;;31.70;40.97;100648.81;15383216;28;20105;-58
2021/06/29 09:58:23;;;;;;;1999.90;999.90;;;;;;;31.77;40.30;100648.50;15380270;28;20413;-61
2021/06/29 10:05:57;;;;;;;1999.90;999.90;;;;;;;32.07;40.58;100637.25;15379960;28;20086;-60
2021/06/29 10:13:34;;;;;;;1999.90;999.90;;;;;;;32.54;39.52;100651.09;15361488;29;20106;-60
2021/06/29 10:21:23;;;;;;;1999.90;999.90;;;;;;;31.46;43.40;100644.94;15378013;28;20102;-62
2021/06/29 10:29:00;;;;;;;1999.90;999.90;;;;;;;31.47;42.74;100638.72;15378394;28;20043;-60
2021/06/29 10:36:33;;;;;;;1999.90;999.90;;;;;;;31.54;42.95;100634.72;15363968;29;20546;-62
2021/06/29 10:44:12;;;;;;;1999.90;999.90;;;;;;;31.36;43.97;100629.72;15384457;29;20533;-62
2021/06/29 10:51:44;;;;;;;1999.90;999.90;;;;;;;31.39;44.30;100625.91;15384072;28;20039;-62
2021/06/29 10:59:18;;;;;;;1999.90;999.90;;;;;;;31.46;45.02;100633.41;15385441;28;20181;-61
2021/06/29 11:06:50;;;;;;;1999.90;999.90;;;;;;;31.41;44.46;100623.34;15383742;29;20047;-61
2021/06/29 11:14:27;;;;;;;;;;;;;;;31.22;44.12;100621.72;15382765;28;20122;-62
2021/06/29 11:21:59;;;;;;;1999.90;999.90;;;;;;;31.84;43.56;100612.78;15381356;29;19926;-61
2021/06/29 11:29:40;;;;;;;1999.90;999.90;;;;;;;31.84;42.76;100604.13;15382451;28;20127;-60
2021/06/29 11:37:12;;;;;;;1999.90;999.90;;;;;;;31.88;42.64;100596.88;15380669;29;20070;-60
2021/06/29 11:44:49;;;;;;;1999.90;999.90;;;;;;;32.03;41.40;100585.47;15364143;29;20110;-60
2021/06/29 11:52:28;;;;;;;1999.90;999.90;;;;;;;31.94;42.41;100585.50;15380399;28;20047;-58
2021/06/29 12:00:08;;;;;;;1999.90;999.90;;;;;;;32.16;42.66;100573.72;15376354;28;20404;-62
2021/06/29 12:07:42;;;;;;;1999.90;999.90;;;;;;;31.46;45.40;100564.22;15376389;28;20054;-59
2021/06/29 12:15:22;;;;;;;1999.90;999.90;;;;;;;31.40;45.87;100552.56;15376991;29;20102;-61
2021/06/29 12:22:55;;;;;;;1999.90;999.90;;;;;;;30.73;46.63;100544.78;15379480;28;20465;-63
2021/06/29 12:30:38;;;;;;;1999.90;999.90;;;;;;;31.28;45.57;100533.34;15382264;28;20051;-62
2021/06/29 12:38:14;;;;;;;1999.90;999.90;;;;;;;30.92;46.15;100534.09;15394485;28;20110;-64
2021/06/29 12:45:48;;;;;;;1999.90;999.90;;;;;;;29.78;48.31;100530.13;15389386;29;20046;-62
2021/06/29 12:53:21;;;;;;;1999.90;999.90;;;;;;;29.71;49.70;100513.97;15390330;28;20043;-64
2021/06/29 13:00:55;;;;;;;1999.90;999.90;;;;;;;29.62;49.59;100515.97;15391370;28;20103;-63
2021/06/29 13:08:27;;;;;;;1999.90;999.90;;;;;;;29.88;49.73;100520.25;15389477;29;20504;-64
2021/06/29 13:16:17;;;;;;;1999.90;999.90;;;;;;;29.66;50.42;100508.81;15373629;29;20043;-63
2021/06/29 13:23:57;;;;;;;1999.90;999.90;;;;;;;29.28;50.96;100498.31;15387161;28;20047;-61
2021/06/29 13:31:38;;;;;;;1999.90;999.90;;;;;;;29.36;51.58;100492.28;15386931;28;20051;-62
2021/06/29 13:39:10;;;;;;;1999.90;999.90;;;;;;;29.18;52.50;100487.19;15384254;29;20062;-64
2021/06/29 13:46:45;;;;;;;1999.90;999.90;;;;;;;29.45;51.11;100486.59;15365184;29;20106;-63
2021/06/29 13:54:19;;;;;;;1999.90;999.90;;;;;;;29.62;50.15;100469.97;15380543;28;20086;-63
2021/06/29 14:01:56;;;;;;;1999.90;999.90;;;;;;;29.73;50.72;100478.97;15380716;28;20130;-62
2021/06/29 14:09:35;;;;;;;1999.90;999.90;;;;;;;29.67;50.06;100467.28;15380583;29;20476;-62
2021/06/29 14:17:09;;;;;;;1999.90;999.90;;;;;;;29.61;50.32;100472.06;15380590;28;20066;-62
2021/06/29 14:24:41;;;;;;;1999.90;999.90;;;;;;;29.99;49.66;100465.19;15380984;29;20059;-61
2021/06/29 14:32:15;;;;;;;1999.90;999.90;;;;;;;30.14;50.69;100455.53;15384767;28;20579;-61
2021/06/29 14:39:47;;;;;;;1999.90;999.90;;;;;;;30.52;50.01;100459.28;15382567;29;20054;-61
2021/06/29 14:47:21;;;;;;;1999.90;999.90;;;;;;;30.63;48.42;100451.78;15384317;29;20051;-61
2021/06/29 14:54:53;;;;;;;1999.90;999.90;;;;;;;30.45;48.80;100428.75;15384730;28;20389;-61
2021/06/29 15:02:26;;;;;;;1999.90;999.90;;;;;;;30.78;49.20;100422.41;15382396;28;20047;-62
2021/06/29 15:09:59;;;;;;;1999.90;999.90;;;;;;;30.80;48.86;100397.59;15382054;29;20051;-60
2021/06/29 15:17:32;;;;;;;1999.90;999.90;;;;;;;30.99;48.60;100396.31;15383362;28;20054;-61
2021/06/29 15:25:06;;;;;;;1999.90;999.90;;;;;;;31.00;48.46;100400.78;15381965;28;20074;-62
2021/06/29 15:32:40;;;;;;;1999.90;999.90;;;;;;;30.99;48.55;100419.34;15383667;29;20055;-63
2021/06/29 15:40:20;;;;;;;1999.90;999.90;;;;;;;30.76;48.52;100422.88;15385177;28;20047;-62
2021/06/29 15:47:55;;;;;;;1999.90;999.90;;;;;;;29.75;49.68;100381.53;15383077;29;20576;-62
2021/06/29 15:55:27;;;;;;;1999.90;999.90;;;;;;;30.20;50.02;100374.34;15362491;29;20043;-58
2021/06/29 16:03:01;;;;;;;1999.90;999.90;;;;;;;30.28;49.54;100359.16;15379307;28;20704;-59
2021/06/29 16:10:33;;;;;;;1999.90;999.90;;;;;;;30.21;50.38;100368.09;15378705;28;20039;-59
2021/06/29 16:18:06;;;;;;;1999.90;999.90;;;;;;;29.93;51.04;100370.09;15384040;28;20122;-61
2021/06/29 16:25:39;;;;;;;1999.90;999.90;;;;;;;29.77;51.88;100367.50;15389856;28;20075;-62
2021/06/29 16:33:12;;;;;;;1999.90;999.90;;;;;;;29.62;52.29;100364.41;15386032;28;20130;-62
2021/06/29 16:40:44;;;;;;;1999.90;999.90;;;;;;;29.56;51.52;100364.22;15383867;29;20048;-62
2021/06/29 16:48:18;;;;;;;1999.90;999.90;;;;;;;29.57;53.12;100380.19;15366073;29;20131;-61
2021/06/29 16:55:52;;;;;;;1999.90;999.90;;;;;;;28.31;47.35;100387.38;15367128;29;20139;-62
2021/06/29 17:03:25;;;;;;;1999.90;999.90;;;;;;;27.84;44.82;100351.66;15382377;29;20079;-62
2021/06/29 17:10:58;;;;;;;1999.90;999.90;;;;;;;27.64;45.81;100365.41;15382073;29;20039;-61
2021/06/29 17:18:33;;;;;;;1999.90;999.90;;;;;;;27.44;46.79;100362.78;15381633;29;20130;-60
2021/06/29 17:26:05;;;;;;;1999.90;999.90;;;;;;;27.22;47.99;100374.09;15382083;28;20106;-61
2021/06/29 17:33:39;;;;;;;;;;;;;;;26.22;55.53;100389.56;15382389;28;20047;-60
2021/06/29 17:41:11;;;;;;;1999.90;999.90;;;;;;;22.32;80.51;100349.31;15380370;28;20299;-61
2021/06/29 17:48:44;;;;;;;1999.90;999.90;;;;;;;22.50;83.79;100390.94;15380122;29;20106;-62
2021/06/29 17:56:19;;;;;;;1999.90;999.90;;;;;;;22.67;87.40;100430.56;15380489;28;20047;-62
2021/06/29 18:03:53;;;;;;;1999.90;999.90;;;;;;;22.59;85.88;100433.91;15379045;29;20097;-62
2021/06/29 18:11:25;;;;;;;1999.90;999.90;;;;;;;22.56;87.24;100418.50;15360996;29;20039;-61
2021/06/29 18:19:00;;;;;;;1999.90;999.90;;;;;;;22.55;88.14;100430.31;15376642;29;20505;-61
2021/06/29 18:26:32;;;;;;;1999.90;999.90;;;;;;;22.44;90.15;100413.34;15376480;29;20074;-61
2021/06/29 18:34:10;;;;;;;1999.90;999.90;;;;;;;22.51;86.82;100412.47;15375125;29;20043;-62
2021/06/29 18:41:42;;;;;;;1999.90;999.90;;;;;;;22.48;88.90;100408.44;15375462;28;20130;-62
2021/06/29 18:49:16;;;;;;;1999.90;999.90;;;;;;;22.01;91.47;100402.34;15374411;28;20047;-63
2021/06/29 18:56:49;;;;;;;1999.90;999.90;;;;;;;22.23;89.21;100383.09;15374939;28;20051;-64
2021/06/29 19:04:22;;;;;;;1999.90;999.90;;;;;;;22.39;87.47;100394.69;15375223;28;20409;-63
2021/06/29 19:11:54;;;;;;;1999.90;999.90;;;;;;;22.26;88.46;100365.22;15373212;29;20071;-64
2021/06/29 19:19:28;;;;;;;1999.90;999.90;;;;;;;22.32;88.31;100374.09;15373780;28;20050;-64
2021/06/29 19:27:02;;;;;;;1999.90;999.90;;;;;;;22.32;89.20;100376.94;15373282;28;20039;-62
2021/06/29 19:34:35;;;;;;;1999.90;999.90;;;;;;;22.33;87.87;100368.00;15372933;28;20057;-65
2021/06/29 19:42:07;;;;;;;1999.90;999.90;;;;;;;22.24;88.61;100373.34;15372065;29;20050;-65
2021/06/29 19:49:41;;;;;;;1999.90;999.90;;;;;;;22.18;88.40;100375.03;15370950;28;20047;-64
2021/06/29 19:57:13;;;;;;;1999.90;999.90;;;;;;;22.10;89.25;100345.91;15372500;28;20362;-65
2021/06/29 20:04:47;;;;;;;1999.90;999.90;;;;;;;22.00;91.96;100351.66;15372013;28;20180;-65
2021/06/29 20:12:20;;;;;;;1999.90;999.90;;;;;;;21.83;92.53;100339.22;15372509;28;20043;-64
2021/06/29 20:19:53;;;;;;;1999.90;999.90;;;;;;;21.82;91.69;100332.72;15386200;28;20056;-61
2021/06/29 20:27:26;;;;;;;1999.90;999.90;;;;;;;21.91;90.55;100349.28;15371587;28;20281;-66
2021/06/29 20:34:59;;;;;;;1999.90;999.90;;;;;;;22.01;90.32;100344.75;15372871;28;20039;-66
2021/06/29 20:42:31;;;;;;;1999.90;999.90;;;;;;;22.03;89.11;100330.91;15370494;29;20043;-64
2021/06/29 20:50:07;;;;;;;1999.90;999.90;;;;;;;22.07;88.62;100320.34;15370428;29;20055;-66
2021/06/29 20:57:40;;;;;;;1999.90;999.90;;;;;;;22.02;89.42;100343.50;15369223;29;20307;-64
2021/06/29 21:05:14;;;;;;;1999.90;999.90;;;;;;;22.12;88.73;100336.94;15364072;29;20137;-65
2021/06/29 21:12:46;;;;;;;1999.90;999.90;;;;;;;22.08;88.90;100322.75;15382921;28;20110;-63
2021/06/29 21:20:20;;;;;;;1999.90;999.90;;;;;;;22.19;88.24;100320.59;15381237;29;20142;-65
2021/06/29 21:27:53;;;;;;;1999.90;999.90;;;;;;;22.08;89.57;100324.78;15364174;29;20051;-65
2021/06/29 21:35:26;;;;;;;1999.90;999.90;;;;;;;22.16;88.71;100312.13;15381006;29;20065;-65
2021/06/29 21:42:58;;;;;;;1999.90;999.90;;;;;;;22.12;89.40;100314.22;15366580;29;20335;-66
2021/06/29 21:50:32;;;;;;;1999.90;999.90;;;;;;;22.08;88.88;100319.09;15383131;28;20052;-65
2021/06/29 21:58:04;;;;;;;1999.90;999.90;;;;;;;21.98;88.35;100326.47;15366380;29;20047;-65
2021/06/29 22:05:39;;;;;;;1999.90;999.90;;;;;;;22.06;89.27;100330.91;15380803;28;20094;-65
2021/06/29 22:13:11;;;;;;;1999.90;999.90;;;;;;;21.66;93.50;100315.41;15378949;28;20039;-65
2021/06/29 22:20:45;;;;;;;1999.90;999.90;;;;;;;21.95;90.56;100312.31;15378474;29;20051;-63
2021/06/29 22:28:17;;;;;;;1999.90;999.90;;;;;;;22.06;89.15;100310.19;15380715;28;20047;-64
2021/06/29 22:35:51;;;;;;;1999.90;999.90;;;;;;;22.16;89.49;100309.28;15379239;28;20079;-65
2021/06/29 22:43:23;;;;;;;1999.90;999.90;;;;;;;22.18;88.89;100310.47;15379208;28;20079;-64
2021/06/29 22:50:56;;;;;;;1999.90;999.90;;;;;;;22.23;89.31;100308.41;15377409;28;20115;-66
2021/06/29 22:58:29;;;;;;;1999.90;999.90;;;;;;;22.23;88.11;100269.44;15376749;28;20074;-65
2021/06/29 23:06:02;;;;;;;1999.90;999.90;;;;;;;21.86;89.84;100256.00;15374054;28;20394;-65
2021/06/29 23:13:34;;;;;;;1999.90;999.90;;;;;;;21.81;89.60;100259.31;15369742;29;20135;-65
2021/06/29 23:21:08;;;;;;;1999.90;999.90;;;;;;;21.85;89.51;100254.41;15354788;29;20043;-65
2021/06/29 23:28:40;;;;;;;1999.90;999.90;;;;;;;21.90;89.57;100249.06;15372666;28;20134;-64
2021/06/29 23:36:14;;;;;;;1999.90;999.90;;;;;;;21.73;90.02;100241.53;15373423;29;20051;-65
2021/06/29 23:43:46;;;;;;;1999.90;999.90;;;;;;;21.67;91.46;100254.56;15374884;28;20146;-65
2021/06/29 23:51:19;;;;;;;1999.90;999.90;;;;;;;21.96;88.64;100262.81;15373297;29;20482;-65
2021/06/29 23:58:51;;;;;;;1999.90;999.90;;;;;;;21.88;88.44;100271.41;15374065;28;20051;-65
